aviador You're here:

YSSY Decoded Metar

SYDNEY in AUSTRALIA
Report Time2017-04-29 17:00:00
UTC Time2017-04-29 17:44:35
Flight Rules vfr VFR
Wind230° at 02 kt
W.Decomp.*RWY 25: 1.7 kt HW 1.1 kt LCW
RWY 16: 1.1 kt HW 1.7 kt RCW
W.Rank230° ranks 28
Current wind is below 230° avg. (9.6)
Visibility9999 m
Phenomena:Vicinity showers
Clouds:Few 020 Hf
Scattered 035 Hf
Broken 065 Hf
Expected CloudBase > 1,200 ft AGL from Temp-Dew spread
Ceiling6,500 ft
Temp14°C (ISA -1)
Dew Point11°C (82% RH)
AAT13.6°C
QNH1021 hPa
Density Alt-200 ft
Elevation10 ft
Report Wrong Elevation
Raw Report
METAR YSSY 291700Z 23002KT 9999 VCSH FEW020 SCT035 BKN065 14/11 Q1021
NOSIG=

Extra information for YSSY:More info

Metar Taf Metar & Taf Last 4 Metars F.Rules Stats Wind Profile Meteogram Temp Stats Airport Information Weather charts Add Link Nearby VenuesMetar ALERT Operation Metar Decoded Social comments